sensor_id;sensor_type;location;lat;lon;timestamp;temperature;humidity
6307;DHT22;3186;54.062;9.962;2023-02-28T00:01:25;5.00;99.90
6307;DHT22;3186;54.062;9.962;2023-02-28T00:03:51;5.00;99.90
6307;DHT22;3186;54.062;9.962;2023-02-28T00:06:17;5.00;99.90
6307;DHT22;3186;54.062;9.962;2023-02-28T00:08:43;5.00;99.90
6307;DHT22;3186;54.062;9.962;2023-02-28T00:11:11;5.00;99.90
6307;DHT22;3186;54.062;9.962;2023-02-28T00:13:39;4.90;99.90
6307;DHT22;3186;54.062;9.962;2023-02-28T00:16:08;4.90;99.90
6307;DHT22;3186;54.062;9.962;2023-02-28T00:18:35;4.90;99.90
6307;DHT22;3186;54.062;9.962;2023-02-28T00:21:01;5.00;99.90
6307;DHT22;3186;54.062;9.962;2023-02-28T00:23:29;5.00;99.90
6307;DHT22;3186;54.062;9.962;2023-02-28T00:25:55;4.90;99.90
6307;DHT22;3186;54.062;9.962;2023-02-28T00:28:21;4.90;99.90
6307;DHT22;3186;54.062;9.962;2023-02-28T00:30:47;4.90;99.90
6307;DHT22;3186;54.062;9.962;2023-02-28T00:33:13;4.90;99.90
6307;DHT22;3186;54.062;9.962;2023-02-28T00:35:39;4.90;99.90
6307;DHT22;3186;54.062;9.962;2023-02-28T00:38:08;4.90;99.90
6307;DHT22;3186;54.062;9.962;2023-02-28T00:40:34;4.90;99.90
6307;DHT22;3186;54.062;9.962;2023-02-28T00:43:00;5.00;99.90
6307;DHT22;3186;54.062;9.962;2023-02-28T00:45:25;5.00;99.90
6307;DHT22;3186;54.062;9.962;2023-02-28T00:47:51;5.00;99.90
6307;DHT22;3186;54.062;9.962;2023-02-28T00:50:18;5.00;99.90
6307;DHT22;3186;54.062;9.962;2023-02-28T00:52:45;4.90;99.90
6307;DHT22;3186;54.062;9.962;2023-02-28T00:55:13;4.90;99.90
6307;DHT22;3186;54.062;9.962;2023-02-28T00:57:39;4.90;99.90
6307;DHT22;3186;54.062;9.962;2023-02-28T01:00:06;4.90;99.90
6307;DHT22;3186;54.062;9.962;2023-02-28T01:02:32;4.90;99.90
6307;DHT22;3186;54.062;9.962;2023-02-28T01:04:58;4.90;99.90
6307;DHT22;3186;54.062;9.962;2023-02-28T01:07:24;4.90;99.90
6307;DHT22;3186;54.062;9.962;2023-02-28T01:09:49;4.90;99.90
6307;DHT22;3186;54.062;9.962;2023-02-28T01:12:16;4.90;99.90
6307;DHT22;3186;54.062;9.962;2023-02-28T01:14:42;4.90;99.90
6307;DHT22;3186;54.062;9.962;2023-02-28T01:17:08;4.90;99.90
6307;DHT22;3186;54.062;9.962;2023-02-28T01:19:34;4.90;99.90
6307;DHT22;3186;54.062;9.962;2023-02-28T01:22:03;4.90;99.90
6307;DHT22;3186;54.062;9.962;2023-02-28T01:24:29;4.80;99.90
6307;DHT22;3186;54.062;9.962;2023-02-28T01:26:55;4.90;99.90
6307;DHT22;3186;54.062;9.962;2023-02-28T01:29:21;4.80;99.90
6307;DHT22;3186;54.062;9.962;2023-02-28T01:31:47;4.80;99.90
6307;DHT22;3186;54.062;9.962;2023-02-28T01:34:12;4.80;99.90
6307;DHT22;3186;54.062;9.962;2023-02-28T01:36:38;4.80;99.90
6307;DHT22;3186;54.062;9.962;2023-02-28T01:39:04;4.80;99.90
6307;DHT22;3186;54.062;9.962;2023-02-28T01:41:32;4.80;99.90
6307;DHT22;3186;54.062;9.962;2023-02-28T01:44:01;4.80;99.90
6307;DHT22;3186;54.062;9.962;2023-02-28T01:46:33;4.80;99.90
6307;DHT22;3186;54.062;9.962;2023-02-28T01:49:06;4.70;99.90
6307;DHT22;3186;54.062;9.962;2023-02-28T01:51:45;4.80;99.90
6307;DHT22;3186;54.062;9.962;2023-02-28T01:54:34;4.70;99.90
6307;DHT22;3186;54.062;9.962;2023-02-28T01:57:06;4.70;99.90
6307;DHT22;3186;54.062;9.962;2023-02-28T01:59:58;4.70;99.90
6307;DHT22;3186;54.062;9.962;2023-02-28T02:02:27;4.70;99.90
6307;DHT22;3186;54.062;9.962;2023-02-28T02:04:58;4.70;99.90
6307;DHT22;3186;54.062;9.962;2023-02-28T02:07:31;4.70;99.90
6307;DHT22;3186;54.062;9.962;2023-02-28T02:15:49;4.60;99.90
6307;DHT22;3186;54.062;9.962;2023-02-28T02:18:30;4.70;99.90
6307;DHT22;3186;54.062;9.962;2023-02-28T02:32:22;4.60;99.90
6307;DHT22;3186;54.062;9.962;2023-02-28T02:37:51;4.50;99.90
6307;DHT22;3186;54.062;9.962;2023-02-28T02:40:33;4.60;99.90
6307;DHT22;3186;54.062;9.962;2023-02-28T02:43:19;4.50;99.90
6307;DHT22;3186;54.062;9.962;2023-02-28T02:45:53;4.50;99.90
6307;DHT22;3186;54.062;9.962;2023-02-28T02:48:25;4.50;99.90
6307;DHT22;3186;54.062;9.962;2023-02-28T02:50:58;4.50;99.90
6307;DHT22;3186;54.062;9.962;2023-02-28T02:53:34;4.50;99.90
6307;DHT22;3186;54.062;9.962;2023-02-28T02:56:04;4.50;99.90
6307;DHT22;3186;54.062;9.962;2023-02-28T02:58:35;4.40;99.90
6307;DHT22;3186;54.062;9.962;2023-02-28T03:01:09;4.40;99.90
6307;DHT22;3186;54.062;9.962;2023-02-28T03:03:36;4.40;99.90
6307;DHT22;3186;54.062;9.962;2023-02-28T03:06:03;4.40;99.90
6307;DHT22;3186;54.062;9.962;2023-02-28T03:08:36;4.40;99.90
6307;DHT22;3186;54.062;9.962;2023-02-28T03:11:10;4.30;99.90
6307;DHT22;3186;54.062;9.962;2023-02-28T03:25:17;4.20;99.90
6307;DHT22;3186;54.062;9.962;2023-02-28T03:30:52;4.20;99.90
6307;DHT22;3186;54.062;9.962;2023-02-28T03:33:38;4.20;99.90
6307;DHT22;3186;54.062;9.962;2023-02-28T03:36:09;4.20;99.90
6307;DHT22;3186;54.062;9.962;2023-02-28T03:38:43;4.20;99.90
6307;DHT22;3186;54.062;9.962;2023-02-28T03:41:17;4.10;99.90
6307;DHT22;3186;54.062;9.962;2023-02-28T03:43:56;4.10;99.90
6307;DHT22;3186;54.062;9.962;2023-02-28T03:46:25;4.10;99.90
6307;DHT22;3186;54.062;9.962;2023-02-28T03:49:06;4.10;99.90
6307;DHT22;3186;54.062;9.962;2023-02-28T03:51:36;4.10;99.90
6307;DHT22;3186;54.062;9.962;2023-02-28T03:54:09;4.10;99.90
6307;DHT22;3186;54.062;9.962;2023-02-28T03:56:43;4.10;99.90
6307;DHT22;3186;54.062;9.962;2023-02-28T03:59:19;4.10;99.90
6307;DHT22;3186;54.062;9.962;2023-02-28T04:01:50;4.10;99.90
6307;DHT22;3186;54.062;9.962;2023-02-28T04:04:18;4.10;99.90
6307;DHT22;3186;54.062;9.962;2023-02-28T04:06:44;4.10;99.90
6307;DHT22;3186;54.062;9.962;2023-02-28T04:09:12;4.10;99.90
6307;DHT22;3186;54.062;9.962;2023-02-28T04:11:50;4.10;99.90
6307;DHT22;3186;54.062;9.962;2023-02-28T04:14:19;4.10;99.90
6307;DHT22;3186;54.062;9.962;2023-02-28T04:16:45;4.00;99.90
6307;DHT22;3186;54.062;9.962;2023-02-28T04:19:12;4.00;99.90
6307;DHT22;3186;54.062;9.962;2023-02-28T04:24:06;4.00;99.90
6307;DHT22;3186;54.062;9.962;2023-02-28T04:26:34;4.00;99.90
6307;DHT22;3186;54.062;9.962;2023-02-28T04:29:00;4.00;99.90
6307;DHT22;3186;54.062;9.962;2023-02-28T04:31:27;4.00;99.90
6307;DHT22;3186;54.062;9.962;2023-02-28T04:33:52;4.00;99.90
6307;DHT22;3186;54.062;9.962;2023-02-28T04:36:19;4.00;99.90
6307;DHT22;3186;54.062;9.962;2023-02-28T04:38:45;4.00;99.90
6307;DHT22;3186;54.062;9.962;2023-02-28T04:41:11;4.00;99.90
6307;DHT22;3186;54.062;9.962;2023-02-28T04:43:37;4.00;99.90
6307;DHT22;3186;54.062;9.962;2023-02-28T04:46:04;4.00;99.90
6307;DHT22;3186;54.062;9.962;2023-02-28T04:48:33;4.00;99.90
6307;DHT22;3186;54.062;9.962;2023-02-28T04:51:07;4.00;99.90
6307;DHT22;3186;54.062;9.962;2023-02-28T04:53:34;4.10;99.90
6307;DHT22;3186;54.062;9.962;2023-02-28T04:56:00;4.00;99.90
6307;DHT22;3186;54.062;9.962;2023-02-28T04:58:26;3.90;99.90
6307;DHT22;3186;54.062;9.962;2023-02-28T05:00:54;3.90;99.90
6307;DHT22;3186;54.062;9.962;2023-02-28T05:03:26;3.90;99.90
6307;DHT22;3186;54.062;9.962;2023-02-28T05:05:52;3.90;99.90
6307;DHT22;3186;54.062;9.962;2023-02-28T05:08:18;3.90;99.90
6307;DHT22;3186;54.062;9.962;2023-02-28T05:10:43;3.90;99.90
6307;DHT22;3186;54.062;9.962;2023-02-28T05:13:12;3.80;99.90
6307;DHT22;3186;54.062;9.962;2023-02-28T05:15:38;3.80;99.90
6307;DHT22;3186;54.062;9.962;2023-02-28T05:18:04;3.80;99.90
6307;DHT22;3186;54.062;9.962;2023-02-28T05:20:29;3.80;99.90
6307;DHT22;3186;54.062;9.962;2023-02-28T05:22:57;3.80;99.90
6307;DHT22;3186;54.062;9.962;2023-02-28T05:25:24;3.80;99.90
6307;DHT22;3186;54.062;9.962;2023-02-28T05:27:49;3.70;99.90
6307;DHT22;3186;54.062;9.962;2023-02-28T05:30:16;3.70;99.90
6307;DHT22;3186;54.062;9.962;2023-02-28T05:32:42;3.70;99.90
6307;DHT22;3186;54.062;9.962;2023-02-28T05:35:11;3.70;99.90
6307;DHT22;3186;54.062;9.962;2023-02-28T05:37:38;3.60;99.90
6307;DHT22;3186;54.062;9.962;2023-02-28T05:40:07;3.60;99.90
6307;DHT22;3186;54.062;9.962;2023-02-28T05:42:36;3.60;99.90
6307;DHT22;3186;54.062;9.962;2023-02-28T05:45:03;3.50;99.90
6307;DHT22;3186;54.062;9.962;2023-02-28T05:47:29;3.50;99.90
6307;DHT22;3186;54.062;9.962;2023-02-28T05:49:55;3.40;99.90
6307;DHT22;3186;54.062;9.962;2023-02-28T05:52:21;3.40;99.90
6307;DHT22;3186;54.062;9.962;2023-02-28T05:54:47;3.40;99.90
6307;DHT22;3186;54.062;9.962;2023-02-28T05:57:13;3.50;99.90
6307;DHT22;3186;54.062;9.962;2023-02-28T05:59:39;3.40;99.90
6307;DHT22;3186;54.062;9.962;2023-02-28T06:02:15;3.30;99.90
6307;DHT22;3186;54.062;9.962;2023-02-28T06:04:43;3.30;99.90
6307;DHT22;3186;54.062;9.962;2023-02-28T06:07:09;3.30;99.90
6307;DHT22;3186;54.062;9.962;2023-02-28T06:09:36;3.20;99.90
6307;DHT22;3186;54.062;9.962;2023-02-28T06:12:04;3.20;99.90
6307;DHT22;3186;54.062;9.962;2023-02-28T06:14:32;3.20;99.90
6307;DHT22;3186;54.062;9.962;2023-02-28T06:16:59;3.20;99.90
6307;DHT22;3186;54.062;9.962;2023-02-28T06:19:25;3.10;99.90
6307;DHT22;3186;54.062;9.962;2023-02-28T06:21:52;3.10;99.90
6307;DHT22;3186;54.062;9.962;2023-02-28T06:24:19;3.00;99.90
6307;DHT22;3186;54.062;9.962;2023-02-28T06:26:45;2.90;99.90
6307;DHT22;3186;54.062;9.962;2023-02-28T06:29:11;2.90;99.90
6307;DHT22;3186;54.062;9.962;2023-02-28T06:31:37;2.90;99.90
6307;DHT22;3186;54.062;9.962;2023-02-28T06:34:04;3.00;99.90
6307;DHT22;3186;54.062;9.962;2023-02-28T06:36:30;2.90;99.90
6307;DHT22;3186;54.062;9.962;2023-02-28T06:39:03;2.80;99.90
6307;DHT22;3186;54.062;9.962;2023-02-28T06:41:32;2.80;99.90
6307;DHT22;3186;54.062;9.962;2023-02-28T06:44:13;2.80;99.90
6307;DHT22;3186;54.062;9.962;2023-02-28T06:46:41;2.80;99.90
6307;DHT22;3186;54.062;9.962;2023-02-28T06:49:07;2.70;99.90
6307;DHT22;3186;54.062;9.962;2023-02-28T06:51:38;2.70;99.90
6307;DHT22;3186;54.062;9.962;2023-02-28T06:54:05;2.80;99.90
6307;DHT22;3186;54.062;9.962;2023-02-28T06:56:31;2.70;99.90
6307;DHT22;3186;54.062;9.962;2023-02-28T06:58:57;2.70;99.90
6307;DHT22;3186;54.062;9.962;2023-02-28T07:01:22;2.70;99.90
6307;DHT22;3186;54.062;9.962;2023-02-28T07:03:50;2.60;99.90
6307;DHT22;3186;54.062;9.962;2023-02-28T07:06:24;2.60;99.90
6307;DHT22;3186;54.062;9.962;2023-02-28T07:08:51;2.60;99.90
6307;DHT22;3186;54.062;9.962;2023-02-28T07:11:19;2.60;99.90
6307;DHT22;3186;54.062;9.962;2023-02-28T07:13:45;2.60;99.90
6307;DHT22;3186;54.062;9.962;2023-02-28T07:16:13;2.60;99.90
6307;DHT22;3186;54.062;9.962;2023-02-28T07:18:39;2.60;99.90
6307;DHT22;3186;54.062;9.962;2023-02-28T07:21:07;2.50;99.90
6307;DHT22;3186;54.062;9.962;2023-02-28T07:23:34;2.50;99.90
6307;DHT22;3186;54.062;9.962;2023-02-28T07:26:00;2.50;99.90
6307;DHT22;3186;54.062;9.962;2023-02-28T07:28:25;2.50;99.90
6307;DHT22;3186;54.062;9.962;2023-02-28T07:30:51;2.50;99.90
6307;DHT22;3186;54.062;9.962;2023-02-28T07:33:17;2.50;99.90
6307;DHT22;3186;54.062;9.962;2023-02-28T07:35:43;2.40;99.90
6307;DHT22;3186;54.062;9.962;2023-02-28T07:38:09;2.40;99.90
6307;DHT22;3186;54.062;9.962;2023-02-28T07:40:36;2.40;99.90
6307;DHT22;3186;54.062;9.962;2023-02-28T07:43:01;2.40;99.90
6307;DHT22;3186;54.062;9.962;2023-02-28T07:45:28;2.40;99.90
6307;DHT22;3186;54.062;9.962;2023-02-28T07:48:00;2.40;99.90
6307;DHT22;3186;54.062;9.962;2023-02-28T07:50:26;2.40;99.90
6307;DHT22;3186;54.062;9.962;2023-02-28T07:52:54;2.40;99.90
6307;DHT22;3186;54.062;9.962;2023-02-28T07:55:20;2.40;99.90
6307;DHT22;3186;54.062;9.962;2023-02-28T07:57:46;2.40;99.90
6307;DHT22;3186;54.062;9.962;2023-02-28T08:00:12;2.40;99.90
6307;DHT22;3186;54.062;9.962;2023-02-28T08:02:39;2.30;99.90
6307;DHT22;3186;54.062;9.962;2023-02-28T08:05:06;2.30;99.90
6307;DHT22;3186;54.062;9.962;2023-02-28T08:07:32;2.30;99.90
6307;DHT22;3186;54.062;9.962;2023-02-28T08:09:59;2.30;99.90
6307;DHT22;3186;54.062;9.962;2023-02-28T08:12:25;2.30;99.90
6307;DHT22;3186;54.062;9.962;2023-02-28T08:14:51;2.30;99.90
6307;DHT22;3186;54.062;9.962;2023-02-28T08:17:17;2.20;99.90
6307;DHT22;3186;54.062;9.962;2023-02-28T08:19:45;2.30;99.90
6307;DHT22;3186;54.062;9.962;2023-02-28T08:22:11;2.30;99.90
6307;DHT22;3186;54.062;9.962;2023-02-28T08:24:37;2.30;99.90
6307;DHT22;3186;54.062;9.962;2023-02-28T08:27:03;2.20;99.90
6307;DHT22;3186;54.062;9.962;2023-02-28T08:29:29;2.20;99.90
6307;DHT22;3186;54.062;9.962;2023-02-28T08:31:55;2.20;99.90
6307;DHT22;3186;54.062;9.962;2023-02-28T08:34:22;2.10;99.90
6307;DHT22;3186;54.062;9.962;2023-02-28T08:36:48;2.10;99.90
6307;DHT22;3186;54.062;9.962;2023-02-28T08:39:14;2.10;99.90
6307;DHT22;3186;54.062;9.962;2023-02-28T08:41:41;2.10;99.90
6307;DHT22;3186;54.062;9.962;2023-02-28T08:44:07;2.20;99.90
6307;DHT22;3186;54.062;9.962;2023-02-28T08:46:33;2.20;99.90
6307;DHT22;3186;54.062;9.962;2023-02-28T08:48:59;2.10;99.90
6307;DHT22;3186;54.062;9.962;2023-02-28T08:51:27;2.20;99.90
6307;DHT22;3186;54.062;9.962;2023-02-28T08:53:55;2.10;99.90
6307;DHT22;3186;54.062;9.962;2023-02-28T08:56:21;2.20;99.90
6307;DHT22;3186;54.062;9.962;2023-02-28T08:58:48;2.30;99.90
6307;DHT22;3186;54.062;9.962;2023-02-28T09:01:41;2.30;99.90
6307;DHT22;3186;54.062;9.962;2023-02-28T09:04:07;2.20;99.90
6307;DHT22;3186;54.062;9.962;2023-02-28T09:06:35;2.30;99.90
6307;DHT22;3186;54.062;9.962;2023-02-28T09:09:01;2.40;99.90
6307;DHT22;3186;54.062;9.962;2023-02-28T09:11:27;2.50;99.90
6307;DHT22;3186;54.062;9.962;2023-02-28T09:13:53;2.50;99.90
6307;DHT22;3186;54.062;9.962;2023-02-28T09:16:21;2.40;99.90
6307;DHT22;3186;54.062;9.962;2023-02-28T09:18:47;2.50;99.90
6307;DHT22;3186;54.062;9.962;2023-02-28T09:21:17;2.30;99.90
6307;DHT22;3186;54.062;9.962;2023-02-28T09:23:46;2.30;99.90
6307;DHT22;3186;54.062;9.962;2023-02-28T09:26:21;2.50;99.90
6307;DHT22;3186;54.062;9.962;2023-02-28T09:28:48;2.40;99.90
6307;DHT22;3186;54.062;9.962;2023-02-28T09:31:16;2.50;99.90
6307;DHT22;3186;54.062;9.962;2023-02-28T09:33:48;2.60;99.90
6307;DHT22;3186;54.062;9.962;2023-02-28T09:36:14;2.70;99.90
6307;DHT22;3186;54.062;9.962;2023-02-28T09:38:40;2.70;99.90
6307;DHT22;3186;54.062;9.962;2023-02-28T09:41:19;2.70;99.90
6307;DHT22;3186;54.062;9.962;2023-02-28T09:43:57;2.60;99.90
6307;DHT22;3186;54.062;9.962;2023-02-28T09:46:28;2.60;99.90
6307;DHT22;3186;54.062;9.962;2023-02-28T09:48:56;2.70;99.90
6307;DHT22;3186;54.062;9.962;2023-02-28T09:54:03;2.70;99.90
6307;DHT22;3186;54.062;9.962;2023-02-28T09:56:57;2.70;99.90
6307;DHT22;3186;54.062;9.962;2023-02-28T10:04:53;2.80;99.90
6307;DHT22;3186;54.062;9.962;2023-02-28T10:07:34;2.90;99.90
6307;DHT22;3186;54.062;9.962;2023-02-28T10:10:06;3.20;99.90
6307;DHT22;3186;54.062;9.962;2023-02-28T10:12:41;3.20;99.90
6307;DHT22;3186;54.062;9.962;2023-02-28T10:15:14;3.20;99.90
6307;DHT22;3186;54.062;9.962;2023-02-28T10:17:42;3.20;99.90
6307;DHT22;3186;54.062;9.962;2023-02-28T10:20:14;3.10;99.90
6307;DHT22;3186;54.062;9.962;2023-02-28T10:25:22;3.50;99.90
6307;DHT22;3186;54.062;9.962;2023-02-28T10:27:49;3.40;99.90
6307;DHT22;3186;54.062;9.962;2023-02-28T10:30:19;3.60;99.90
6307;DHT22;3186;54.062;9.962;2023-02-28T10:32:51;3.50;99.90
6307;DHT22;3186;54.062;9.962;2023-02-28T10:35:28;3.70;99.90
6307;DHT22;3186;54.062;9.962;2023-02-28T10:37:59;3.70;99.90
6307;DHT22;3186;54.062;9.962;2023-02-28T10:40:32;3.80;99.90
6307;DHT22;3186;54.062;9.962;2023-02-28T10:45:25;4.30;99.90
6307;DHT22;3186;54.062;9.962;2023-02-28T10:53:23;4.80;94.70
6307;DHT22;3186;54.062;9.962;2023-02-28T11:03:42;5.00;95.00
6307;DHT22;3186;54.062;9.962;2023-02-28T11:06:33;4.60;99.90
6307;DHT22;3186;54.062;9.962;2023-02-28T11:09:19;5.10;96.90
6307;DHT22;3186;54.062;9.962;2023-02-28T11:11:49;5.70;82.60
6307;DHT22;3186;54.062;9.962;2023-02-28T11:14:24;5.90;73.90
6307;DHT22;3186;54.062;9.962;2023-02-28T11:16:51;5.50;81.90
6307;DHT22;3186;54.062;9.962;2023-02-28T11:19:25;6.20;74.60
6307;DHT22;3186;54.062;9.962;2023-02-28T11:21:58;6.20;75.10
6307;DHT22;3186;54.062;9.962;2023-02-28T11:24:28;6.40;65.70
6307;DHT22;3186;54.062;9.962;2023-02-28T11:26:56;6.70;58.00
6307;DHT22;3186;54.062;9.962;2023-02-28T11:29:29;6.70;56.60
6307;DHT22;3186;54.062;9.962;2023-02-28T11:34:39;6.60;53.70
6307;DHT22;3186;54.062;9.962;2023-02-28T11:37:11;6.70;57.90
6307;DHT22;3186;54.062;9.962;2023-02-28T11:39:37;6.90;53.40
6307;DHT22;3186;54.062;9.962;2023-02-28T11:42:33;7.10;53.70
6307;DHT22;3186;54.062;9.962;2023-02-28T11:45:25;7.60;45.30
6307;DHT22;3186;54.062;9.962;2023-02-28T11:53:41;5.60;86.60
6307;DHT22;3186;54.062;9.962;2023-02-28T12:04:26;8.70;31.30
6307;DHT22;3186;54.062;9.962;2023-02-28T12:09:50;9.20;24.60
6307;DHT22;3186;54.062;9.962;2023-02-28T12:15:36;9.50;26.30
6307;DHT22;3186;54.062;9.962;2023-02-28T12:21:30;9.50;25.40
6307;DHT22;3186;54.062;9.962;2023-02-28T12:24:10;9.50;22.40
6307;DHT22;3186;54.062;9.962;2023-02-28T12:26:45;8.10;29.80
6307;DHT22;3186;54.062;9.962;2023-02-28T12:34:37;9.70;22.60
6307;DHT22;3186;54.062;9.962;2023-02-28T12:37:17;8.50;35.30
6307;DHT22;3186;54.062;9.962;2023-02-28T12:39:48;9.30;39.30
6307;DHT22;3186;54.062;9.962;2023-02-28T12:42:29;9.90;28.20
6307;DHT22;3186;54.062;9.962;2023-02-28T12:45:03;10.20;22.10
6307;DHT22;3186;54.062;9.962;2023-02-28T12:47:32;10.50;17.80
6307;DHT22;3186;54.062;9.962;2023-02-28T12:49:59;10.50;28.50
6307;DHT22;3186;54.062;9.962;2023-02-28T12:52:37;10.60;9.70
6307;DHT22;3186;54.062;9.962;2023-02-28T12:58:13;10.70;22.50
6307;DHT22;3186;54.062;9.962;2023-02-28T13:03:32;10.90;1.00
6307;DHT22;3186;54.062;9.962;2023-02-28T13:08:59;11.10;19.80
6307;DHT22;3186;54.062;9.962;2023-02-28T13:11:31;10.90;30.20
6307;DHT22;3186;54.062;9.962;2023-02-28T13:19:46;11.30;25.90
6307;DHT22;3186;54.062;9.962;2023-02-28T13:25:49;11.50;14.60
6307;DHT22;3186;54.062;9.962;2023-02-28T13:31:16;11.30;96.00
6307;DHT22;3186;54.062;9.962;2023-02-28T13:38:49;11.60;38.60
6307;DHT22;3186;54.062;9.962;2023-02-28T13:46:25;12.00;34.70
6307;DHT22;3186;54.062;9.962;2023-02-28T13:48:51;11.90;19.90
6307;DHT22;3186;54.062;9.962;2023-02-28T13:52:10;11.80;30.40
6307;DHT22;3186;54.062;9.962;2023-02-28T13:57:04;11.30;29.50
6307;DHT22;3186;54.062;9.962;2023-02-28T14:05:19;12.00;99.90
6307;DHT22;3186;54.062;9.962;2023-02-28T14:07:57;12.10;46.20
6307;DHT22;3186;54.062;9.962;2023-02-28T14:11:03;11.90;76.20
6307;DHT22;3186;54.062;9.962;2023-02-28T14:16:11;12.30;99.90
6307;DHT22;3186;54.062;9.962;2023-02-28T14:18:42;12.30;99.90
6307;DHT22;3186;54.062;9.962;2023-02-28T14:21:29;12.30;99.90
6307;DHT22;3186;54.062;9.962;2023-02-28T14:27:26;12.40;99.90
6307;DHT22;3186;54.062;9.962;2023-02-28T14:37:59;12.10;99.90
6307;DHT22;3186;54.062;9.962;2023-02-28T14:40:33;12.50;99.90
6307;DHT22;3186;54.062;9.962;2023-02-28T14:43:05;13.10;99.90
6307;DHT22;3186;54.062;9.962;2023-02-28T14:45:34;12.40;99.90
6307;DHT22;3186;54.062;9.962;2023-02-28T14:48:02;12.60;99.90
6307;DHT22;3186;54.062;9.962;2023-02-28T14:50:38;12.20;99.90
6307;DHT22;3186;54.062;9.962;2023-02-28T14:53:06;11.90;99.90
6307;DHT22;3186;54.062;9.962;2023-02-28T14:55:37;11.70;99.90
6307;DHT22;3186;54.062;9.962;2023-02-28T14:58:05;11.90;99.90
6307;DHT22;3186;54.062;9.962;2023-02-28T15:00:34;12.00;99.90
6307;DHT22;3186;54.062;9.962;2023-02-28T15:05:59;12.30;99.90
6307;DHT22;3186;54.062;9.962;2023-02-28T15:08:25;12.10;99.90
6307;DHT22;3186;54.062;9.962;2023-02-28T15:10:58;12.20;99.90
6307;DHT22;3186;54.062;9.962;2023-02-28T15:13:44;12.20;99.90
6307;DHT22;3186;54.062;9.962;2023-02-28T15:18:50;11.20;99.90
6307;DHT22;3186;54.062;9.962;2023-02-28T15:21:21;11.40;99.90
6307;DHT22;3186;54.062;9.962;2023-02-28T15:24:03;11.50;99.90
6307;DHT22;3186;54.062;9.962;2023-02-28T15:26:33;11.60;99.90
6307;DHT22;3186;54.062;9.962;2023-02-28T15:29:02;11.40;99.90
6307;DHT22;3186;54.062;9.962;2023-02-28T15:31:32;11.50;99.90
6307;DHT22;3186;54.062;9.962;2023-02-28T15:34:03;11.30;99.90
6307;DHT22;3186;54.062;9.962;2023-02-28T15:36:32;11.20;99.90
6307;DHT22;3186;54.062;9.962;2023-02-28T15:39:00;11.40;99.90
6307;DHT22;3186;54.062;9.962;2023-02-28T15:41:31;11.30;99.90
6307;DHT22;3186;54.062;9.962;2023-02-28T15:47:44;11.00;99.90
6307;DHT22;3186;54.062;9.962;2023-02-28T15:49:53;11.10;99.90
6307;DHT22;3186;54.062;9.962;2023-02-28T15:52:39;11.20;99.90
6307;DHT22;3186;54.062;9.962;2023-02-28T15:55:23;11.10;99.90
6307;DHT22;3186;54.062;9.962;2023-02-28T15:57:55;11.00;99.90
6307;DHT22;3186;54.062;9.962;2023-02-28T16:00:25;11.10;99.90
6307;DHT22;3186;54.062;9.962;2023-02-28T16:02:51;10.80;99.90
6307;DHT22;3186;54.062;9.962;2023-02-28T16:07:54;10.80;99.90
6307;DHT22;3186;54.062;9.962;2023-02-28T16:10:21;10.80;99.90
6307;DHT22;3186;54.062;9.962;2023-02-28T16:12:50;10.90;99.90
6307;DHT22;3186;54.062;9.962;2023-02-28T16:17:46;10.80;99.90
6307;DHT22;3186;54.062;9.962;2023-02-28T16:22:40;10.60;99.90
6307;DHT22;3186;54.062;9.962;2023-02-28T16:25:13;10.50;99.90
6307;DHT22;3186;54.062;9.962;2023-02-28T16:27:39;10.50;99.90
6307;DHT22;3186;54.062;9.962;2023-02-28T16:30:07;10.40;99.90
6307;DHT22;3186;54.062;9.962;2023-02-28T16:32:36;10.40;99.90
6307;DHT22;3186;54.062;9.962;2023-02-28T16:35:03;10.30;99.90
6307;DHT22;3186;54.062;9.962;2023-02-28T16:37:29;10.10;99.90
6307;DHT22;3186;54.062;9.962;2023-02-28T16:39:55;10.10;99.90
6307;DHT22;3186;54.062;9.962;2023-02-28T16:42:23;9.90;99.90
6307;DHT22;3186;54.062;9.962;2023-02-28T16:44:50;9.80;99.90
6307;DHT22;3186;54.062;9.962;2023-02-28T16:47:17;9.70;99.90
6307;DHT22;3186;54.062;9.962;2023-02-28T16:49:43;9.60;99.90
6307;DHT22;3186;54.062;9.962;2023-02-28T16:52:10;9.50;99.90
6307;DHT22;3186;54.062;9.962;2023-02-28T16:54:38;9.50;99.90
6307;DHT22;3186;54.062;9.962;2023-02-28T16:57:05;9.40;99.90
6307;DHT22;3186;54.062;9.962;2023-02-28T16:59:31;9.30;99.90
6307;DHT22;3186;54.062;9.962;2023-02-28T17:01:58;9.10;99.90
6307;DHT22;3186;54.062;9.962;2023-02-28T17:04:25;9.10;99.90
6307;DHT22;3186;54.062;9.962;2023-02-28T17:06:51;9.00;99.90
6307;DHT22;3186;54.062;9.962;2023-02-28T17:09:19;8.80;99.90
6307;DHT22;3186;54.062;9.962;2023-02-28T17:11:45;8.70;99.90
6307;DHT22;3186;54.062;9.962;2023-02-28T17:14:12;8.60;99.90
6307;DHT22;3186;54.062;9.962;2023-02-28T17:16:39;8.50;99.90
6307;DHT22;3186;54.062;9.962;2023-02-28T17:19:13;8.50;99.90
6307;DHT22;3186;54.062;9.962;2023-02-28T17:21:40;8.40;99.90
6307;DHT22;3186;54.062;9.962;2023-02-28T17:24:08;8.40;99.90
6307;DHT22;3186;54.062;9.962;2023-02-28T17:26:33;8.30;99.90
6307;DHT22;3186;54.062;9.962;2023-02-28T17:28:59;8.20;99.90
6307;DHT22;3186;54.062;9.962;2023-02-28T17:31:26;8.20;99.90
6307;DHT22;3186;54.062;9.962;2023-02-28T17:33:53;8.10;99.90
6307;DHT22;3186;54.062;9.962;2023-02-28T17:36:40;8.00;99.90
6307;DHT22;3186;54.062;9.962;2023-02-28T17:39:09;7.90;99.90
6307;DHT22;3186;54.062;9.962;2023-02-28T17:41:36;7.90;99.90
6307;DHT22;3186;54.062;9.962;2023-02-28T17:44:02;7.80;99.90
6307;DHT22;3186;54.062;9.962;2023-02-28T17:46:28;7.70;99.90
6307;DHT22;3186;54.062;9.962;2023-02-28T17:48:54;7.60;99.90
6307;DHT22;3186;54.062;9.962;2023-02-28T17:51:23;7.60;99.90
6307;DHT22;3186;54.062;9.962;2023-02-28T17:53:49;7.50;99.90
6307;DHT22;3186;54.062;9.962;2023-02-28T17:56:21;7.40;99.90
6307;DHT22;3186;54.062;9.962;2023-02-28T17:58:48;7.30;99.90
6307;DHT22;3186;54.062;9.962;2023-02-28T18:01:14;7.30;99.90
6307;DHT22;3186;54.062;9.962;2023-02-28T18:03:40;7.20;99.90
6307;DHT22;3186;54.062;9.962;2023-02-28T18:06:08;7.10;99.90
6307;DHT22;3186;54.062;9.962;2023-02-28T18:08:37;7.00;99.90
6307;DHT22;3186;54.062;9.962;2023-02-28T18:11:03;7.00;99.90
6307;DHT22;3186;54.062;9.962;2023-02-28T18:13:29;6.90;99.90
6307;DHT22;3186;54.062;9.962;2023-02-28T18:15:55;6.90;99.90
6307;DHT22;3186;54.062;9.962;2023-02-28T18:18:21;6.80;99.90
6307;DHT22;3186;54.062;9.962;2023-02-28T18:20:46;6.70;99.90
6307;DHT22;3186;54.062;9.962;2023-02-28T18:23:15;6.60;99.90
6307;DHT22;3186;54.062;9.962;2023-02-28T18:25:42;6.60;99.90
6307;DHT22;3186;54.062;9.962;2023-02-28T18:28:08;6.50;99.90
6307;DHT22;3186;54.062;9.962;2023-02-28T18:30:36;6.50;99.90
6307;DHT22;3186;54.062;9.962;2023-02-28T18:33:02;6.40;99.90
6307;DHT22;3186;54.062;9.962;2023-02-28T18:35:30;6.30;99.90
6307;DHT22;3186;54.062;9.962;2023-02-28T18:38:03;6.30;99.90
6307;DHT22;3186;54.062;9.962;2023-02-28T18:40:29;6.20;99.90
6307;DHT22;3186;54.062;9.962;2023-02-28T18:42:56;6.10;99.90
6307;DHT22;3186;54.062;9.962;2023-02-28T18:45:21;6.10;99.90
6307;DHT22;3186;54.062;9.962;2023-02-28T18:47:47;6.00;99.90
6307;DHT22;3186;54.062;9.962;2023-02-28T18:50:13;6.00;99.90
6307;DHT22;3186;54.062;9.962;2023-02-28T18:52:39;5.90;99.90
6307;DHT22;3186;54.062;9.962;2023-02-28T18:55:05;5.80;99.90
6307;DHT22;3186;54.062;9.962;2023-02-28T18:57:32;5.80;99.90
6307;DHT22;3186;54.062;9.962;2023-02-28T18:59:58;5.70;99.90
6307;DHT22;3186;54.062;9.962;2023-02-28T19:02:24;5.70;99.90
6307;DHT22;3186;54.062;9.962;2023-02-28T19:04:50;5.60;99.90
6307;DHT22;3186;54.062;9.962;2023-02-28T19:07:16;5.60;99.90
6307;DHT22;3186;54.062;9.962;2023-02-28T19:09:42;5.60;99.90
6307;DHT22;3186;54.062;9.962;2023-02-28T19:12:08;5.50;99.90
6307;DHT22;3186;54.062;9.962;2023-02-28T19:14:34;5.50;99.90